sensor_id;sensor_type;location;lat;lon;timestamp;P1;durP1;ratioP1;P2;durP2;ratioP2
27213;SDS011;14723;55.814;37.460;2022-09-02T00:01:01;0.60;;;0.60;;
27213;SDS011;14723;55.814;37.460;2022-09-02T00:04:08;0.38;;;0.35;;
27213;SDS011;14723;55.814;37.460;2022-09-02T00:07:14;0.47;;;0.47;;
27213;SDS011;14723;55.814;37.460;2022-09-02T00:10:19;0.40;;;0.40;;
27213;SDS011;14723;55.814;37.460;2022-09-02T00:13:28;1.65;;;0.52;;
27213;SDS011;14723;55.814;37.460;2022-09-02T00:19:38;0.40;;;0.40;;
27213;SDS011;14723;55.814;37.460;2022-09-02T00:22:43;0.57;;;0.45;;
27213;SDS011;14723;55.814;37.460;2022-09-02T00:25:48;0.30;;;0.30;;
27213;SDS011;14723;55.814;37.460;2022-09-02T00:28:56;0.40;;;0.30;;
27213;SDS011;14723;55.814;37.460;2022-09-02T00:32:01;0.55;;;0.43;;
27213;SDS011;14723;55.814;37.460;2022-09-02T00:35:07;1.25;;;0.30;;
27213;SDS011;14723;55.814;37.460;2022-09-02T00:38:12;1.65;;;0.40;;
27213;SDS011;14723;55.814;37.460;2022-09-02T00:41:19;0.45;;;0.40;;
27213;SDS011;14723;55.814;37.460;2022-09-02T00:44:27;0.47;;;0.32;;
27213;SDS011;14723;55.814;37.460;2022-09-02T00:47:32;0.33;;;0.33;;
27213;SDS011;14723;55.814;37.460;2022-09-02T00:50:38;0.20;;;0.20;;
27213;SDS011;14723;55.814;37.460;2022-09-02T00:53:44;1.73;;;0.40;;
27213;SDS011;14723;55.814;37.460;2022-09-02T00:56:49;0.22;;;0.22;;
27213;SDS011;14723;55.814;37.460;2022-09-02T01:00:00;0.45;;;0.30;;
27213;SDS011;14723;55.814;37.460;2022-09-02T01:03:07;1.25;;;0.30;;
27213;SDS011;14723;55.814;37.460;2022-09-02T01:06:12;0.20;;;0.20;;
27213;SDS011;14723;55.814;37.460;2022-09-02T01:09:18;1.25;;;0.20;;
27213;SDS011;14723;55.814;37.460;2022-09-02T01:12:24;0.20;;;0.20;;
27213;SDS011;14723;55.814;37.460;2022-09-02T01:15:33;0.55;;;0.30;;
27213;SDS011;14723;55.814;37.460;2022-09-02T01:18:40;1.10;;;0.30;;
27213;SDS011;14723;55.814;37.460;2022-09-02T01:21:51;1.90;;;0.50;;
27213;SDS011;14723;55.814;37.460;2022-09-02T01:24:59;1.50;;;0.30;;
27213;SDS011;14723;55.814;37.460;2022-09-02T01:31:10;1.25;;;0.30;;
27213;SDS011;14723;55.814;37.460;2022-09-02T01:34:16;0.52;;;0.30;;
27213;SDS011;14723;55.814;37.460;2022-09-02T01:37:24;0.90;;;0.25;;
27213;SDS011;14723;55.814;37.460;2022-09-02T01:43:35;1.33;;;0.30;;
27213;SDS011;14723;55.814;37.460;2022-09-02T01:46:40;1.92;;;0.40;;
27213;SDS011;14723;55.814;37.460;2022-09-02T01:49:46;0.25;;;0.25;;
27213;SDS011;14723;55.814;37.460;2022-09-02T01:52:54;1.38;;;0.20;;
27213;SDS011;14723;55.814;37.460;2022-09-02T01:55:59;1.70;;;0.30;;
27213;SDS011;14723;55.814;37.460;2022-09-02T01:59:07;0.70;;;0.30;;
27213;SDS011;14723;55.814;37.460;2022-09-02T02:02:19;2.40;;;0.30;;
27213;SDS011;14723;55.814;37.460;2022-09-02T02:05:26;0.20;;;0.20;;
27213;SDS011;14723;55.814;37.460;2022-09-02T02:08:34;2.33;;;0.28;;
27213;SDS011;14723;55.814;37.460;2022-09-02T02:11:40;0.40;;;0.20;;
27213;SDS011;14723;55.814;37.460;2022-09-02T02:14:49;0.30;;;0.30;;
27213;SDS011;14723;55.814;37.460;2022-09-02T02:17:55;0.32;;;0.30;;
27213;SDS011;14723;55.814;37.460;2022-09-02T02:21:01;0.35;;;0.32;;
27213;SDS011;14723;55.814;37.460;2022-09-02T02:24:08;0.22;;;0.20;;
27213;SDS011;14723;55.814;37.460;2022-09-02T02:27:17;0.80;;;0.30;;
27213;SDS011;14723;55.814;37.460;2022-09-02T02:30:22;1.20;;;0.30;;
27213;SDS011;14723;55.814;37.460;2022-09-02T02:33:27;1.55;;;0.30;;
27213;SDS011;14723;55.814;37.460;2022-09-02T02:36:38;1.77;;;0.30;;
27213;SDS011;14723;55.814;37.460;2022-09-02T02:39:47;0.35;;;0.30;;
27213;SDS011;14723;55.814;37.460;2022-09-02T02:42:52;0.45;;;0.40;;
27213;SDS011;14723;55.814;37.460;2022-09-02T02:45:58;1.10;;;0.40;;
27213;SDS011;14723;55.814;37.460;2022-09-02T02:49:04;0.55;;;0.55;;
27213;SDS011;14723;55.814;37.460;2022-09-02T02:52:10;1.02;;;0.38;;
27213;SDS011;14723;55.814;37.460;2022-09-02T02:55:19;0.20;;;0.20;;
27213;SDS011;14723;55.814;37.460;2022-09-02T03:01:30;0.22;;;0.20;;
27213;SDS011;14723;55.814;37.460;2022-09-02T03:04:38;0.33;;;0.33;;
27213;SDS011;14723;55.814;37.460;2022-09-02T03:07:44;0.40;;;0.20;;
27213;SDS011;14723;55.814;37.460;2022-09-02T03:10:54;1.27;;;0.30;;
27213;SDS011;14723;55.814;37.460;2022-09-02T03:14:03;0.45;;;0.30;;
27213;SDS011;14723;55.814;37.460;2022-09-02T03:17:08;0.28;;;0.28;;
27213;SDS011;14723;55.814;37.460;2022-09-02T03:20:15;0.30;;;0.30;;
27213;SDS011;14723;55.814;37.460;2022-09-02T03:23:26;2.15;;;0.40;;
27213;SDS011;14723;55.814;37.460;2022-09-02T03:26:35;1.75;;;0.20;;
27213;SDS011;14723;55.814;37.460;2022-09-02T03:29:40;1.45;;;0.30;;
27213;SDS011;14723;55.814;37.460;2022-09-02T03:32:46;0.60;;;0.60;;
27213;SDS011;14723;55.814;37.460;2022-09-02T03:35:51;0.45;;;0.30;;
27213;SDS011;14723;55.814;37.460;2022-09-02T03:38:58;0.30;;;0.30;;
27213;SDS011;14723;55.814;37.460;2022-09-02T03:42:06;0.75;;;0.55;;
27213;SDS011;14723;55.814;37.460;2022-09-02T03:45:23;2.35;;;0.70;;
27213;SDS011;14723;55.814;37.460;2022-09-02T03:48:28;0.73;;;0.40;;
27213;SDS011;14723;55.814;37.460;2022-09-02T03:51:34;1.30;;;0.52;;
27213;SDS011;14723;55.814;37.460;2022-09-02T03:54:39;2.95;;;0.45;;
27213;SDS011;14723;55.814;37.460;2022-09-02T03:57:47;1.10;;;0.50;;
27213;SDS011;14723;55.814;37.460;2022-09-02T04:00:53;2.42;;;0.40;;
27213;SDS011;14723;55.814;37.460;2022-09-02T04:03:59;0.43;;;0.40;;
27213;SDS011;14723;55.814;37.460;2022-09-02T04:07:05;0.63;;;0.30;;
27213;SDS011;14723;55.814;37.460;2022-09-02T04:10:10;1.30;;;0.70;;
27213;SDS011;14723;55.814;37.460;2022-09-02T04:13:19;7.20;;;1.58;;
27213;SDS011;14723;55.814;37.460;2022-09-02T04:16:24;1.98;;;0.50;;
27213;SDS011;14723;55.814;37.460;2022-09-02T04:19:35;2.05;;;0.30;;
27213;SDS011;14723;55.814;37.460;2022-09-02T04:22:41;2.35;;;0.50;;
27213;SDS011;14723;55.814;37.460;2022-09-02T04:25:46;1.85;;;0.52;;
27213;SDS011;14723;55.814;37.460;2022-09-02T04:28:54;1.85;;;0.40;;
27213;SDS011;14723;55.814;37.460;2022-09-02T04:32:01;1.05;;;0.50;;
27213;SDS011;14723;55.814;37.460;2022-09-02T04:35:08;0.60;;;0.45;;
27213;SDS011;14723;55.814;37.460;2022-09-02T04:38:14;0.57;;;0.50;;
27213;SDS011;14723;55.814;37.460;2022-09-02T04:41:21;1.40;;;0.50;;
27213;SDS011;14723;55.814;37.460;2022-09-02T04:44:32;2.38;;;0.40;;
27213;SDS011;14723;55.814;37.460;2022-09-02T04:47:38;1.33;;;0.47;;
27213;SDS011;14723;55.814;37.460;2022-09-02T04:50:47;1.45;;;0.35;;
27213;SDS011;14723;55.814;37.460;2022-09-02T04:53:54;1.27;;;0.40;;
27213;SDS011;14723;55.814;37.460;2022-09-02T04:56:59;0.40;;;0.40;;
27213;SDS011;14723;55.814;37.460;2022-09-02T05:00:08;0.55;;;0.52;;
27213;SDS011;14723;55.814;37.460;2022-09-02T05:03:14;0.88;;;0.70;;
27213;SDS011;14723;55.814;37.460;2022-09-02T05:06:22;0.50;;;0.50;;
27213;SDS011;14723;55.814;37.460;2022-09-02T05:09:31;3.08;;;0.60;;
27213;SDS011;14723;55.814;37.460;2022-09-02T05:12:39;1.13;;;0.50;;
27213;SDS011;14723;55.814;37.460;2022-09-02T05:15:48;1.80;;;0.40;;
27213;SDS011;14723;55.814;37.460;2022-09-02T05:18:54;0.40;;;0.40;;
27213;SDS011;14723;55.814;37.460;2022-09-02T05:22:08;1.30;;;1.05;;
27213;SDS011;14723;55.814;37.460;2022-09-02T05:25:16;0.83;;;0.50;;
27213;SDS011;14723;55.814;37.460;2022-09-02T05:28:23;0.50;;;0.47;;
27213;SDS011;14723;55.814;37.460;2022-09-02T05:31:31;2.75;;;1.13;;
27213;SDS011;14723;55.814;37.460;2022-09-02T05:34:36;1.40;;;0.43;;
27213;SDS011;14723;55.814;37.460;2022-09-02T05:37:42;1.38;;;0.30;;
27213;SDS011;14723;55.814;37.460;2022-09-02T05:40:48;0.30;;;0.30;;
27213;SDS011;14723;55.814;37.460;2022-09-02T05:43:55;1.85;;;0.60;;
27213;SDS011;14723;55.814;37.460;2022-09-02T05:47:08;3.80;;;0.85;;
27213;SDS011;14723;55.814;37.460;2022-09-02T05:50:15;1.05;;;0.70;;
27213;SDS011;14723;55.814;37.460;2022-09-02T05:53:22;0.70;;;0.40;;
27213;SDS011;14723;55.814;37.460;2022-09-02T05:56:28;0.80;;;0.47;;
27213;SDS011;14723;55.814;37.460;2022-09-02T05:59:34;1.35;;;0.50;;
27213;SDS011;14723;55.814;37.460;2022-09-02T06:02:49;1.70;;;0.40;;
27213;SDS011;14723;55.814;37.460;2022-09-02T06:05:59;1.10;;;0.30;;
27213;SDS011;14723;55.814;37.460;2022-09-02T06:09:11;0.43;;;0.40;;
27213;SDS011;14723;55.814;37.460;2022-09-02T06:12:17;0.85;;;0.40;;
27213;SDS011;14723;55.814;37.460;2022-09-02T06:15:23;0.50;;;0.40;;
27213;SDS011;14723;55.814;37.460;2022-09-02T06:18:37;2.25;;;0.43;;
27213;SDS011;14723;55.814;37.460;2022-09-02T06:21:43;1.98;;;0.50;;
27213;SDS011;14723;55.814;37.460;2022-09-02T06:24:49;0.93;;;0.50;;
27213;SDS011;14723;55.814;37.460;2022-09-02T06:27:58;1.05;;;0.40;;
27213;SDS011;14723;55.814;37.460;2022-09-02T06:31:12;1.13;;;0.50;;
27213;SDS011;14723;55.814;37.460;2022-09-02T06:34:21;0.38;;;0.35;;
27213;SDS011;14723;55.814;37.460;2022-09-02T06:37:29;0.30;;;0.30;;
27213;SDS011;14723;55.814;37.460;2022-09-02T06:40:35;1.27;;;0.50;;
27213;SDS011;14723;55.814;37.460;2022-09-02T06:43:40;1.90;;;1.27;;
27213;SDS011;14723;55.814;37.460;2022-09-02T06:46:53;1.25;;;0.40;;
27213;SDS011;14723;55.814;37.460;2022-09-02T06:50:02;0.60;;;0.60;;
27213;SDS011;14723;55.814;37.460;2022-09-02T06:53:08;2.38;;;0.85;;
27213;SDS011;14723;55.814;37.460;2022-09-02T06:56:13;0.75;;;0.50;;
27213;SDS011;14723;55.814;37.460;2022-09-02T06:59:19;1.10;;;0.60;;
27213;SDS011;14723;55.814;37.460;2022-09-02T07:02:28;3.58;;;0.60;;
27213;SDS011;14723;55.814;37.460;2022-09-02T07:05:36;2.45;;;0.70;;
27213;SDS011;14723;55.814;37.460;2022-09-02T07:08:40;1.27;;;0.63;;
27213;SDS011;14723;55.814;37.460;2022-09-02T07:11:47;0.88;;;0.60;;
27213;SDS011;14723;55.814;37.460;2022-09-02T07:14:53;1.85;;;0.57;;
27213;SDS011;14723;55.814;37.460;2022-09-02T07:18:07;3.03;;;0.52;;
27213;SDS011;14723;55.814;37.460;2022-09-02T07:21:14;0.30;;;0.30;;
27213;SDS011;14723;55.814;37.460;2022-09-02T07:27:25;0.40;;;0.38;;
27213;SDS011;14723;55.814;37.460;2022-09-02T07:30:31;3.05;;;0.60;;
27213;SDS011;14723;55.814;37.460;2022-09-02T07:33:44;2.88;;;0.60;;
27213;SDS011;14723;55.814;37.460;2022-09-02T07:36:53;1.40;;;0.40;;
27213;SDS011;14723;55.814;37.460;2022-09-02T07:40:06;1.13;;;0.70;;
27213;SDS011;14723;55.814;37.460;2022-09-02T07:43:12;2.35;;;0.50;;
27213;SDS011;14723;55.814;37.460;2022-09-02T07:46:18;0.85;;;0.45;;
27213;SDS011;14723;55.814;37.460;2022-09-02T07:49:24;0.38;;;0.38;;
27213;SDS011;14723;55.814;37.460;2022-09-02T07:52:32;1.45;;;0.47;;
27213;SDS011;14723;55.814;37.460;2022-09-02T07:55:37;2.03;;;0.65;;
27213;SDS011;14723;55.814;37.460;2022-09-02T07:58:44;1.00;;;0.50;;
27213;SDS011;14723;55.814;37.460;2022-09-02T08:01:49;5.32;;;0.70;;
27213;SDS011;14723;55.814;37.460;2022-09-02T08:04:56;0.50;;;0.40;;
27213;SDS011;14723;55.814;37.460;2022-09-02T08:08:04;0.50;;;0.47;;
27213;SDS011;14723;55.814;37.460;2022-09-02T08:11:09;2.38;;;0.65;;
27213;SDS011;14723;55.814;37.460;2022-09-02T08:14:15;1.02;;;0.70;;
27213;SDS011;14723;55.814;37.460;2022-09-02T08:17:22;1.00;;;0.77;;
27213;SDS011;14723;55.814;37.460;2022-09-02T08:20:27;3.92;;;0.50;;
27213;SDS011;14723;55.814;37.460;2022-09-02T08:23:35;3.00;;;0.60;;
27213;SDS011;14723;55.814;37.460;2022-09-02T08:29:46;1.67;;;0.20;;
27213;SDS011;14723;55.814;37.460;2022-09-02T08:32:51;5.65;;;0.70;;
27213;SDS011;14723;55.814;37.460;2022-09-02T08:36:00;1.55;;;0.30;;
27213;SDS011;14723;55.814;37.460;2022-09-02T08:42:14;0.30;;;0.30;;
27213;SDS011;14723;55.814;37.460;2022-09-02T08:45:22;0.30;;;0.30;;
27213;SDS011;14723;55.814;37.460;2022-09-02T08:48:31;1.85;;;0.40;;
27213;SDS011;14723;55.814;37.460;2022-09-02T08:54:43;1.55;;;0.95;;
27213;SDS011;14723;55.814;37.460;2022-09-02T08:57:52;1.17;;;0.67;;
27213;SDS011;14723;55.814;37.460;2022-09-02T09:00:59;2.40;;;0.47;;
27213;SDS011;14723;55.814;37.460;2022-09-02T09:04:14;5.57;;;0.60;;
27213;SDS011;14723;55.814;37.460;2022-09-02T09:07:23;0.40;;;0.30;;
27213;SDS011;14723;55.814;37.460;2022-09-02T09:10:31;1.45;;;0.50;;
27213;SDS011;14723;55.814;37.460;2022-09-02T09:13:46;3.45;;;0.40;;
27213;SDS011;14723;55.814;37.460;2022-09-02T09:16:56;1.70;;;0.45;;
27213;SDS011;14723;55.814;37.460;2022-09-02T09:20:02;1.98;;;0.55;;
27213;SDS011;14723;55.814;37.460;2022-09-02T09:23:17;0.40;;;0.35;;
27213;SDS011;14723;55.814;37.460;2022-09-02T09:26:25;2.22;;;0.50;;
27213;SDS011;14723;55.814;37.460;2022-09-02T09:29:34;0.65;;;0.47;;
27213;SDS011;14723;55.814;37.460;2022-09-02T09:35:46;3.13;;;0.40;;
27213;SDS011;14723;55.814;37.460;2022-09-02T09:38:52;0.35;;;0.30;;
27213;SDS011;14723;55.814;37.460;2022-09-02T09:41:58;4.60;;;0.60;;
27213;SDS011;14723;55.814;37.460;2022-09-02T09:45:16;3.22;;;0.60;;
27213;SDS011;14723;55.814;37.460;2022-09-02T09:48:23;1.13;;;0.57;;
27213;SDS011;14723;55.814;37.460;2022-09-02T09:51:31;1.17;;;0.43;;
27213;SDS011;14723;55.814;37.460;2022-09-02T09:58:26;0.88;;;0.43;;
27213;SDS011;14723;55.814;37.460;2022-09-02T10:01:36;0.82;;;0.32;;
27213;SDS011;14723;55.814;37.460;2022-09-02T10:04:42;1.77;;;0.50;;
27213;SDS011;14723;55.814;37.460;2022-09-02T10:07:52;1.30;;;0.40;;
27213;SDS011;14723;55.814;37.460;2022-09-02T10:10:59;0.90;;;0.40;;
27213;SDS011;14723;55.814;37.460;2022-09-02T10:14:05;1.63;;;0.60;;
27213;SDS011;14723;55.814;37.460;2022-09-02T10:17:23;0.77;;;0.50;;
27213;SDS011;14723;55.814;37.460;2022-09-02T10:20:33;1.85;;;0.40;;
27213;SDS011;14723;55.814;37.460;2022-09-02T10:24:07;1.80;;;0.40;;
27213;SDS011;14723;55.814;37.460;2022-09-02T10:27:17;0.85;;;0.40;;
27213;SDS011;14723;55.814;37.460;2022-09-02T10:30:25;1.75;;;0.30;;
27213;SDS011;14723;55.814;37.460;2022-09-02T10:33:44;5.10;;;0.40;;
27213;SDS011;14723;55.814;37.460;2022-09-02T10:37:02;1.05;;;0.30;;
27213;SDS011;14723;55.814;37.460;2022-09-02T10:40:12;0.95;;;0.25;;
27213;SDS011;14723;55.814;37.460;2022-09-02T10:43:21;2.20;;;0.43;;
27213;SDS011;14723;55.814;37.460;2022-09-02T10:46:32;2.90;;;0.60;;
27213;SDS011;14723;55.814;37.460;2022-09-02T10:49:51;6.47;;;0.40;;
27213;SDS011;14723;55.814;37.460;2022-09-02T10:53:05;2.42;;;0.43;;
27213;SDS011;14723;55.814;37.460;2022-09-02T10:56:16;1.98;;;0.32;;
27213;SDS011;14723;55.814;37.460;2022-09-02T10:59:23;3.00;;;0.38;;
27213;SDS011;14723;55.814;37.460;2022-09-02T11:02:31;1.27;;;0.37;;
27213;SDS011;14723;55.814;37.460;2022-09-02T11:08:48;0.30;;;0.30;;
27213;SDS011;14723;55.814;37.460;2022-09-02T11:11:55;0.80;;;0.45;;
27213;SDS011;14723;55.814;37.460;2022-09-02T11:15:05;0.30;;;0.30;;
27213;SDS011;14723;55.814;37.460;2022-09-02T11:18:15;1.35;;;0.32;;
27213;SDS011;14723;55.814;37.460;2022-09-02T11:21:34;0.70;;;0.50;;
27213;SDS011;14723;55.814;37.460;2022-09-02T11:24:47;1.65;;;0.50;;
27213;SDS011;14723;55.814;37.460;2022-09-02T11:27:54;5.45;;;0.43;;
27213;SDS011;14723;55.814;37.460;2022-09-02T11:31:03;0.70;;;0.50;;
27213;SDS011;14723;55.814;37.460;2022-09-02T11:34:16;0.77;;;0.45;;
27213;SDS011;14723;55.814;37.460;2022-09-02T11:37:25;2.38;;;0.40;;
27213;SDS011;14723;55.814;37.460;2022-09-02T11:40:35;4.78;;;1.08;;
27213;SDS011;14723;55.814;37.460;2022-09-02T11:43:43;0.82;;;0.60;;
27213;SDS011;14723;55.814;37.460;2022-09-02T11:46:57;0.90;;;0.60;;
27213;SDS011;14723;55.814;37.460;2022-09-02T11:50:07;4.35;;;1.02;;
27213;SDS011;14723;55.814;37.460;2022-09-02T11:53:17;1.67;;;0.60;;
27213;SDS011;14723;55.814;37.460;2022-09-02T11:56:27;0.60;;;0.40;;
27213;SDS011;14723;55.814;37.460;2022-09-02T12:02:54;4.40;;;0.50;;
27213;SDS011;14723;55.814;37.460;2022-09-02T12:06:23;3.08;;;0.98;;
27213;SDS011;14723;55.814;37.460;2022-09-02T12:09:40;6.75;;;2.10;;
27213;SDS011;14723;55.814;37.460;2022-09-02T12:13:03;4.68;;;0.90;;
27213;SDS011;14723;55.814;37.460;2022-09-02T12:19:41;3.75;;;0.55;;
27213;SDS011;14723;55.814;37.460;2022-09-02T12:22:48;1.80;;;0.70;;
27213;SDS011;14723;55.814;37.460;2022-09-02T12:25:55;4.97;;;1.08;;
27213;SDS011;14723;55.814;37.460;2022-09-02T12:29:12;6.82;;;0.90;;
27213;SDS011;14723;55.814;37.460;2022-09-02T12:39:44;5.75;;;0.77;;
27213;SDS011;14723;55.814;37.460;2022-09-02T12:42:54;4.63;;;1.05;;
27213;SDS011;14723;55.814;37.460;2022-09-02T12:46:10;2.78;;;0.68;;
27213;SDS011;14723;55.814;37.460;2022-09-02T12:49:26;9.40;;;1.00;;
27213;SDS011;14723;55.814;37.460;2022-09-02T12:52:40;2.75;;;0.73;;
27213;SDS011;14723;55.814;37.460;2022-09-02T12:55:49;1.45;;;0.70;;
27213;SDS011;14723;55.814;37.460;2022-09-02T12:58:57;7.53;;;1.02;;
27213;SDS011;14723;55.814;37.460;2022-09-02T13:02:15;5.03;;;0.80;;
27213;SDS011;14723;55.814;37.460;2022-09-02T13:05:36;0.85;;;0.30;;
27213;SDS011;14723;55.814;37.460;2022-09-02T13:08:54;1.65;;;0.50;;
27213;SDS011;14723;55.814;37.460;2022-09-02T13:19:21;1.30;;;0.50;;
27213;SDS011;14723;55.814;37.460;2022-09-02T13:25:58;0.75;;;0.40;;
27213;SDS011;14723;55.814;37.460;2022-09-02T13:29:27;3.35;;;0.60;;
27213;SDS011;14723;55.814;37.460;2022-09-02T13:32:40;2.72;;;0.68;;
27213;SDS011;14723;55.814;37.460;2022-09-02T13:35:52;2.00;;;0.70;;
27213;SDS011;14723;55.814;37.460;2022-09-02T13:39:08;2.20;;;0.70;;
27213;SDS011;14723;55.814;37.460;2022-09-02T13:42:14;2.03;;;0.88;;
27213;SDS011;14723;55.814;37.460;2022-09-02T13:45:24;1.40;;;0.90;;
27213;SDS011;14723;55.814;37.460;2022-09-02T13:48:30;1.40;;;0.60;;
27213;SDS011;14723;55.814;37.460;2022-09-02T13:51:38;1.85;;;0.57;;
27213;SDS011;14723;55.814;37.460;2022-09-02T13:54:46;2.55;;;0.55;;
27213;SDS011;14723;55.814;37.460;2022-09-02T13:57:54;2.42;;;0.60;;
27213;SDS011;14723;55.814;37.460;2022-09-02T14:01:15;1.55;;;0.40;;
27213;SDS011;14723;55.814;37.460;2022-09-02T14:04:22;0.73;;;0.50;;
27213;SDS011;14723;55.814;37.460;2022-09-02T14:07:32;1.88;;;0.50;;
27213;SDS011;14723;55.814;37.460;2022-09-02T14:10:39;0.63;;;0.40;;
27213;SDS011;14723;55.814;37.460;2022-09-02T14:13:45;2.83;;;0.50;;
27213;SDS011;14723;55.814;37.460;2022-09-02T14:16:52;1.80;;;0.50;;
27213;SDS011;14723;55.814;37.460;2022-09-02T14:20:17;1.42;;;0.35;;
27213;SDS011;14723;55.814;37.460;2022-09-02T14:23:26;0.60;;;0.60;;
27213;SDS011;14723;55.814;37.460;2022-09-02T14:26:35;2.22;;;1.33;;
27213;SDS011;14723;55.814;37.460;2022-09-02T14:29:42;4.03;;;0.90;;
27213;SDS011;14723;55.814;37.460;2022-09-02T14:32:47;4.88;;;1.27;;
27213;SDS011;14723;55.814;37.460;2022-09-02T14:35:56;3.90;;;0.82;;
27213;SDS011;14723;55.814;37.460;2022-09-02T14:39:11;3.85;;;0.85;;
27213;SDS011;14723;55.814;37.460;2022-09-02T14:42:18;4.68;;;0.85;;
27213;SDS011;14723;55.814;37.460;2022-09-02T14:45:24;1.25;;;0.70;;
27213;SDS011;14723;55.814;37.460;2022-09-02T14:48:30;3.70;;;1.45;;
27213;SDS011;14723;55.814;37.460;2022-09-02T14:51:37;3.75;;;0.80;;
27213;SDS011;14723;55.814;37.460;2022-09-02T14:54:46;2.17;;;0.80;;
27213;SDS011;14723;55.814;37.460;2022-09-02T15:00:57;2.22;;;0.80;;
27213;SDS011;14723;55.814;37.460;2022-09-02T15:04:03;3.03;;;1.00;;
27213;SDS011;14723;55.814;37.460;2022-09-02T15:07:09;2.10;;;0.80;;
27213;SDS011;14723;55.814;37.460;2022-09-02T15:10:16;0.95;;;0.85;;
27213;SDS011;14723;55.814;37.460;2022-09-02T15:16:27;0.50;;;0.50;;
27213;SDS011;14723;55.814;37.460;2022-09-02T15:19:32;0.70;;;0.57;;
27213;SDS011;14723;55.814;37.460;2022-09-02T15:22:38;4.50;;;1.30;;
27213;SDS011;14723;55.814;37.460;2022-09-02T15:25:46;1.85;;;0.60;;
27213;SDS011;14723;55.814;37.460;2022-09-02T15:28:52;2.33;;;0.65;;
27213;SDS011;14723;55.814;37.460;2022-09-02T15:31:57;2.33;;;0.73;;
27213;SDS011;14723;55.814;37.460;2022-09-02T15:35:06;2.20;;;0.75;;
27213;SDS011;14723;55.814;37.460;2022-09-02T15:38:11;3.50;;;1.20;;
27213;SDS011;14723;55.814;37.460;2022-09-02T15:41:20;2.05;;;0.90;;
27213;SDS011;14723;55.814;37.460;2022-09-02T15:44:28;1.63;;;0.80;;
27213;SDS011;14723;55.814;37.460;2022-09-02T15:47:33;1.30;;;0.80;;
27213;SDS011;14723;55.814;37.460;2022-09-02T15:50:39;1.98;;;1.00;;
27213;SDS011;14723;55.814;37.460;2022-09-02T15:53:51;0.70;;;0.57;;
27213;SDS011;14723;55.814;37.460;2022-09-02T15:56:59;1.90;;;0.50;;
27213;SDS011;14723;55.814;37.460;2022-09-02T16:00:05;0.93;;;0.60;;
27213;SDS011;14723;55.814;37.460;2022-09-02T16:03:17;1.35;;;0.75;;
27213;SDS011;14723;55.814;37.460;2022-09-02T16:06:22;0.77;;;0.60;;
27213;SDS011;14723;55.814;37.460;2022-09-02T16:09:27;3.70;;;1.15;;
27213;SDS011;14723;55.814;37.460;2022-09-02T16:12:35;1.38;;;0.75;;
27213;SDS011;14723;55.814;37.460;2022-09-02T16:15:40;3.45;;;1.00;;
27213;SDS011;14723;55.814;37.460;2022-09-02T16:18:48;0.93;;;0.65;;
27213;SDS011;14723;55.814;37.460;2022-09-02T16:21:53;2.15;;;0.82;;
27213;SDS011;14723;55.814;37.460;2022-09-02T16:24:58;2.20;;;0.88;;
27213;SDS011;14723;55.814;37.460;2022-09-02T16:28:07;1.33;;;0.80;;
27213;SDS011;14723;55.814;37.460;2022-09-02T16:31:14;1.00;;;0.70;;
27213;SDS011;14723;55.814;37.460;2022-09-02T16:34:21;3.73;;;0.90;;
27213;SDS011;14723;55.814;37.460;2022-09-02T16:37:26;3.20;;;0.90;;
27213;SDS011;14723;55.814;37.460;2022-09-02T16:40:31;2.63;;;1.65;;
27213;SDS011;14723;55.814;37.460;2022-09-02T16:43:39;4.22;;;1.20;;
27213;SDS011;14723;55.814;37.460;2022-09-02T16:46:45;2.90;;;1.20;;
27213;SDS011;14723;55.814;37.460;2022-09-02T16:49:50;1.27;;;0.90;;
27213;SDS011;14723;55.814;37.460;2022-09-02T16:52:56;6.75;;;1.33;;
27213;SDS011;14723;55.814;37.460;2022-09-02T16:56:01;4.63;;;1.52;;
27213;SDS011;14723;55.814;37.460;2022-09-02T16:59:10;5.40;;;2.85;;
27213;SDS011;14723;55.814;37.460;2022-09-02T17:05:20;4.25;;;1.85;;
27213;SDS011;14723;55.814;37.460;2022-09-02T17:08:25;4.38;;;1.70;;
27213;SDS011;14723;55.814;37.460;2022-09-02T17:11:31;3.67;;;1.55;;
27213;SDS011;14723;55.814;37.460;2022-09-02T17:14:41;5.65;;;1.67;;
27213;SDS011;14723;55.814;37.460;2022-09-02T17:17:46;4.47;;;1.83;;
27213;SDS011;14723;55.814;37.460;2022-09-02T17:20:51;6.72;;;1.63;;
27213;SDS011;14723;55.814;37.460;2022-09-02T17:24:14;7.85;;;2.22;;
27213;SDS011;14723;55.814;37.460;2022-09-02T17:27:19;3.05;;;1.80;;
27213;SDS011;14723;55.814;37.460;2022-09-02T17:30:27;5.07;;;1.67;;
27213;SDS011;14723;55.814;37.460;2022-09-02T17:33:32;3.42;;;2.00;;
27213;SDS011;14723;55.814;37.460;2022-09-02T17:36:39;3.78;;;1.80;;
27213;SDS011;14723;55.814;37.460;2022-09-02T17:39:45;3.33;;;1.92;;
27213;SDS011;14723;55.814;37.460;2022-09-02T17:42:50;4.45;;;1.52;;
27213;SDS011;14723;55.814;37.460;2022-09-02T17:46:05;3.50;;;1.63;;
27213;SDS011;14723;55.814;37.460;2022-09-02T17:49:11;6.25;;;1.50;;
27213;SDS011;14723;55.814;37.460;2022-09-02T17:52:19;5.35;;;2.00;;
27213;SDS011;14723;55.814;37.460;2022-09-02T17:55:24;5.82;;;1.63;;
27213;SDS011;14723;55.814;37.460;2022-09-02T17:58:31;4.30;;;1.85;;
27213;SDS011;14723;55.814;37.460;2022-09-02T18:01:45;4.93;;;1.67;;
27213;SDS011;14723;55.814;37.460;2022-09-02T18:05:01;4.78;;;2.03;;
27213;SDS011;14723;55.814;37.460;2022-09-02T18:08:07;3.45;;;2.00;;
27213;SDS011;14723;55.814;37.460;2022-09-02T18:11:15;2.92;;;1.80;;
27213;SDS011;14723;55.814;37.460;2022-09-02T18:14:26;3.75;;;1.70;;
27213;SDS011;14723;55.814;37.460;2022-09-02T18:17:40;3.00;;;1.50;;
27213;SDS011;14723;55.814;37.460;2022-09-02T18:20:50;7.78;;;3.75;;
27213;SDS011;14723;55.814;37.460;2022-09-02T18:23:59;2.80;;;1.08;;
27213;SDS011;14723;55.814;37.460;2022-09-02T18:27:09;4.28;;;1.35;;
27213;SDS011;14723;55.814;37.460;2022-09-02T18:30:18;3.60;;;1.30;;
27213;SDS011;14723;55.814;37.460;2022-09-02T18:33:30;3.55;;;1.40;;
27213;SDS011;14723;55.814;37.460;2022-09-02T18:36:41;2.22;;;1.35;;
27213;SDS011;14723;55.814;37.460;2022-09-02T18:39:53;6.22;;;1.58;;
27213;SDS011;14723;55.814;37.460;2022-09-02T18:43:06;5.15;;;1.10;;
27213;SDS011;14723;55.814;37.460;2022-09-02T18:46:14;4.45;;;1.13;;
27213;SDS011;14723;55.814;37.460;2022-09-02T18:49:24;4.45;;;1.27;;
27213;SDS011;14723;55.814;37.460;2022-09-02T18:52:31;4.35;;;1.90;;
27213;SDS011;14723;55.814;37.460;2022-09-02T18:55:37;2.50;;;1.35;;
27213;SDS011;14723;55.814;37.460;2022-09-02T18:58:44;2.10;;;1.15;;
27213;SDS011;14723;55.814;37.460;2022-09-02T19:01:50;2.75;;;1.30;;
27213;SDS011;14723;55.814;37.460;2022-09-02T19:05:00;2.97;;;1.40;;
27213;SDS011;14723;55.814;37.460;2022-09-02T19:08:10;4.78;;;1.35;;
27213;SDS011;14723;55.814;37.460;2022-09-02T19:11:28;6.65;;;1.85;;
27213;SDS011;14723;55.814;37.460;2022-09-02T19:14:37;5.30;;;1.10;;
27213;SDS011;14723;55.814;37.460;2022-09-02T19:17:43;4.80;;;1.35;;
27213;SDS011;14723;55.814;37.460;2022-09-02T19:20:54;3.70;;;1.38;;
27213;SDS011;14723;55.814;37.460;2022-09-02T19:24:00;2.42;;;1.40;;
27213;SDS011;14723;55.814;37.460;2022-09-02T19:27:07;6.95;;;2.38;;
27213;SDS011;14723;55.814;37.460;2022-09-02T19:30:13;2.58;;;1.40;;
27213;SDS011;14723;55.814;37.460;2022-09-02T19:33:19;1.55;;;1.17;;
27213;SDS011;14723;55.814;37.460;2022-09-02T19:36:27;2.20;;;1.35;;
27213;SDS011;14723;55.814;37.460;2022-09-02T19:39:34;3.40;;;1.20;;
27213;SDS011;14723;55.814;37.460;2022-09-02T19:42:39;3.53;;;1.10;;
27213;SDS011;14723;55.814;37.460;2022-09-02T19:45:44;3.08;;;1.08;;